Time;durP1;ratioP1;P1;durP2;ratioP2;P2;SDS_P1;SDS_P2;PMS_P1;PMS_P2;Temp;Humidity;BMP_temperature;BMP_pressure;BME280_temperature;BME280_humidity;BME280_pressure;Samples;Min_cycle;Max_cycle;Signal;HPM_P1;HPM_P2
2023/07/11 01:44:04;;;;;;;21.50;13.38;;;;;;;21.64;100.00;93011.03;4946841;28;20111;-78
2023/07/11 01:46:30;;;;;;;25.13;13.02;;;;;;;21.65;100.00;93017.13;4952262;29;20094;-78
2023/07/11 01:48:56;;;;;;;28.27;12.43;;;;;;;21.62;100.00;93007.94;4947591;29;20175;-78
2023/07/11 01:51:22;;;;;;;20.77;13.10;;;;;;;21.62;100.00;93005.28;4944886;29;20055;-78
2023/07/11 01:53:48;;;;;;;20.23;13.02;;;;;;;21.63;100.00;93006.81;4959372;29;20042;-78
2023/07/11 01:56:13;;;;;;;20.98;12.60;;;;;;;21.60;100.00;93007.50;4962752;28;20509;-78
2023/07/11 01:58:40;;;;;;;25.52;14.70;;;;;;;21.57;100.00;93002.84;4949731;29;20043;-77
2023/07/11 02:01:05;;;;;;;23.95;13.68;;;;;;;21.57;100.00;93003.63;4939289;29;20101;-78
2023/07/11 02:03:31;;;;;;;23.88;14.63;;;;;;;21.56;100.00;92999.41;4935479;29;20090;-77
2023/07/11 02:11:34;;;;;;;24.35;13.57;;;;;;;21.49;100.00;92991.25;5084249;23;20101;-78
2023/07/11 02:14:00;;;;;;;22.90;13.90;;;;;;;21.49;100.00;92991.25;4976823;28;20050;-78
2023/07/11 02:16:26;;;;;;;21.77;13.75;;;;;;;21.48;100.00;92983.59;4964342;28;20288;-78
2023/07/11 02:18:51;;;;;;;27.70;13.90;;;;;;;21.48;100.00;92984.38;4976091;28;20038;-78
2023/07/11 02:21:17;;;;;;;21.15;13.30;;;;;;;21.49;100.00;92985.91;4957840;28;20046;-78
2023/07/11 02:23:43;;;;;;;21.00;13.32;;;;;;;21.48;100.00;92978.25;4970650;28;20411;-78
2023/07/11 02:26:08;;;;;;;20.23;13.20;;;;;;;21.47;100.00;92987.38;4975271;28;20477;-78
2023/07/11 02:28:34;;;;;;;22.20;13.23;;;;;;;21.45;100.00;92984.28;4971088;28;20070;-78
2023/07/11 02:30:59;;;;;;;22.30;12.60;;;;;;;21.45;100.00;92971.72;4968340;28;20041;-78
2023/07/11 02:33:25;;;;;;;20.33;12.75;;;;;;;21.45;100.00;92984.28;4975514;28;20058;-78
2023/07/11 02:35:51;;;;;;;20.63;13.35;;;;;;;21.43;100.00;92979.28;4972729;28;20524;-78
2023/07/11 02:38:16;;;;;;;26.02;13.35;;;;;;;21.42;100.00;92975.84;4966010;28;20035;-78
2023/07/11 02:40:42;;;;;;;26.77;13.73;;;;;;;21.41;100.00;92981.50;4973486;28;20034;-78
2023/07/11 02:43:08;;;;;;;22.05;13.68;;;;;;;21.40;100.00;92983.41;4974519;28;20042;-78
2023/07/11 02:45:33;;;;;;;19.70;12.93;;;;;;;21.39;100.00;92981.06;4939435;28;20073;-79
2023/07/11 02:47:59;;;;;;;21.35;13.73;;;;;;;21.35;100.00;92978.31;4973685;28;20503;-79
2023/07/11 02:50:24;;;;;;;25.98;13.52;;;;;;;21.34;100.00;92984.75;4980568;28;20042;-78
2023/07/11 02:52:50;;;;;;;26.65;14.32;;;;;;;21.31;100.00;92980.09;4973252;28;20043;-78
2023/07/11 02:55:16;;;;;;;25.48;13.93;;;;;;;21.28;100.00;92980.78;4983043;28;20093;-77
2023/07/11 02:57:43;;;;;;;27.20;14.07;;;;;;;21.25;100.00;92984.13;4958157;28;20038;-77
2023/07/11 03:00:09;;;;;;;20.65;13.57;;;;;;;21.24;100.00;92985.25;4973543;28;20047;-78
2023/07/11 03:02:35;;;;;;;27.75;14.43;;;;;;;21.23;100.00;92978.34;4971915;28;20395;-78
2023/07/11 03:05:01;;;;;;;23.27;13.98;;;;;;;21.22;100.00;92982.16;4972685;28;20031;-78
2023/07/11 03:12:07;;;;;;;24.02;14.25;;;;;;;21.18;100.00;92987.38;4957066;28;20122;-77
2023/07/11 03:14:33;;;;;;;25.50;15.20;;;;;;;21.19;100.00;92985.50;4973436;28;20501;-77
2023/07/11 03:16:59;;;;;;;23.55;14.30;;;;;;;21.17;100.00;92985.06;4971575;28;20073;-78
2023/07/11 03:19:24;;;;;;;25.75;14.63;;;;;;;21.17;100.00;92982.41;4970707;28;20506;-78
2023/07/11 03:21:50;;;;;;;26.05;14.18;;;;;;;21.17;100.00;92985.84;4971737;28;20038;-77
2023/07/11 03:24:16;;;;;;;26.13;14.65;;;;;;;21.15;100.00;92992.63;4971193;28;20485;-77
2023/07/11 03:26:46;;;;;;;25.58;14.88;;;;;;;21.14;100.00;92983.06;4970056;28;20527;-77
2023/07/11 03:29:13;;;;;;;25.08;15.20;;;;;;;21.13;100.00;92979.63;4966326;28;20039;-78
2023/07/11 03:31:39;;;;;;;23.17;14.75;;;;;;;21.14;100.00;92975.06;4970683;28;20050;-77
2023/07/11 03:34:05;;;;;;;21.52;14.30;;;;;;;21.13;100.00;92981.53;4971021;28;20042;-77
2023/07/11 03:36:30;;;;;;;23.13;16.33;;;;;;;21.13;100.00;92994.84;4953221;28;20023;-77
2023/07/11 03:38:56;;;;;;;27.90;16.55;;;;;;;21.09;100.00;92986.75;4953674;28;20049;-78
2023/07/11 03:41:22;;;;;;;24.92;15.77;;;;;;;21.06;100.00;92995.41;4968994;28;20711;-77
2023/07/11 03:43:47;;;;;;;24.60;15.52;;;;;;;21.05;100.00;92990.44;4967184;28;20090;-77
2023/07/11 03:46:13;;;;;;;26.27;15.57;;;;;;;21.03;100.00;92992.66;4969827;28;20388;-78
2023/07/11 03:48:38;;;;;;;27.85;16.00;;;;;;;20.96;100.00;92994.03;4964854;28;20027;-78
2023/07/11 03:51:04;;;;;;;21.25;14.05;;;;;;;20.95;100.00;92989.03;4950994;28;20035;-78
2023/07/11 03:53:30;;;;;;;26.80;15.50;;;;;;;20.92;100.00;92998.47;4971008;28;20035;-78
2023/07/11 03:55:56;;;;;;;26.30;15.30;;;;;;;20.92;100.00;92990.47;4953917;28;20031;-77
2023/07/11 03:58:21;;;;;;;26.50;15.45;;;;;;;20.94;100.00;92996.25;4970913;28;20107;-77
2023/07/11 04:00:47;;;;;;;25.70;15.45;;;;;;;20.92;100.00;92990.47;4968283;28;20041;-78
2023/07/11 04:03:13;;;;;;;20.20;14.38;;;;;;;20.93;100.00;92986.69;4970697;28;20047;-78
2023/07/11 04:05:41;;;;;;;23.88;15.18;;;;;;;20.93;100.00;92986.69;4970310;28;20121;-77
2023/07/11 04:08:08;;;;;;;25.75;14.38;;;;;;;20.93;100.00;92988.59;4969044;28;20488;-78
2023/07/11 04:10:34;;;;;;;21.83;14.98;;;;;;;20.94;100.00;92998.09;4968206;28;20027;-78
2023/07/11 04:13:00;;;;;;;27.00;14.95;;;;;;;20.96;100.00;92996.69;4936124;28;20547;-78
2023/07/11 04:15:26;;;;;;;25.33;14.70;;;;;;;20.97;100.00;92987.56;4972967;28;20070;-77
2023/07/11 04:17:51;;;;;;;21.10;14.25;;;;;;;21.00;100.00;92989.53;4971809;28;20555;-78
2023/07/11 04:20:17;;;;;;;23.33;14.50;;;;;;;21.05;100.00;92985.09;4973023;28;20045;-78
2023/07/11 04:22:43;;;;;;;29.05;14.38;;;;;;;21.06;100.00;92986.66;4974567;28;20445;-79
2023/07/11 04:25:09;;;;;;;26.85;15.20;;;;;;;21.07;100.00;92990.88;4972642;28;20038;-79
2023/07/11 04:27:35;;;;;;;27.00;15.65;;;;;;;21.08;100.00;92984.44;4973682;28;20035;-79
2023/07/11 04:30:01;;;;;;;25.63;14.88;;;;;;;21.12;100.00;92990.59;4973197;28;20039;-78
2023/07/11 04:32:28;;;;;;;27.70;15.50;;;;;;;21.15;100.00;92985.41;4956238;28;20031;-81
2023/07/11 04:34:53;;;;;;;27.33;14.90;;;;;;;21.19;100.00;92986.28;4977361;28;20074;-80
2023/07/11 04:37:19;;;;;;;32.03;16.77;;;;;;;21.26;100.00;92988.34;4979551;28;20039;-80
2023/07/11 04:39:45;;;;;;;28.08;15.20;;;;;;;21.31;100.00;92984.66;4975733;28;20400;-80
2023/07/11 04:42:10;;;;;;;27.75;16.30;;;;;;;21.37;100.00;92989.41;4953580;28;20035;-80
2023/07/11 04:44:36;;;;;;;24.05;14.85;;;;;;;21.42;100.00;92991.84;4969345;28;20031;-81
2023/07/11 04:47:02;;;;;;;23.58;15.18;;;;;;;21.50;100.00;92986.69;4973241;28;20039;-79
2023/07/11 04:49:27;;;;;;;29.98;15.13;;;;;;;21.55;100.00;92986.47;4942022;28;20051;-80
2023/07/11 04:51:53;;;;;;;25.50;14.90;;;;;;;21.60;100.00;92986.19;4974399;28;20059;-80
2023/07/11 04:54:19;;;;;;;32.17;15.02;;;;;;;21.67;100.00;92986.38;4957141;28;20043;-80
2023/07/11 04:56:44;;;;;;;28.88;15.30;;;;;;;21.73;100.00;92990.34;4957373;28;20038;-80
2023/07/11 04:59:10;;;;;;;29.25;14.75;;;;;;;21.80;100.00;92993.16;4958691;28;20089;-80
2023/07/11 05:01:36;;;;;;;23.80;15.57;;;;;;;21.89;100.00;92994.91;4977027;28;20111;-80
2023/07/11 05:04:02;;;;;;;23.40;13.82;;;;;;;21.95;100.00;92996.97;4944521;28;20067;-80
2023/07/11 05:06:28;;;;;;;22.85;14.77;;;;;;;21.99;100.00;92991.69;4979133;28;20034;-80
2023/07/11 05:08:53;;;;;;;27.63;15.07;;;;;;;22.05;100.00;92993.00;4945075;28;20027;-80
2023/07/11 05:11:20;;;;;;;20.70;14.30;;;;;;;22.15;100.00;92999.69;4961269;28;20508;-80
2023/07/11 05:13:48;;;;;;;23.42;13.85;;;;;;;22.18;100.00;93005.09;4980166;28;20059;-80
2023/07/11 05:16:16;;;;;;;23.13;13.32;;;;;;;22.31;100.00;93010.34;4979940;28;20508;-80
2023/07/11 05:18:43;;;;;;;25.52;13.95;;;;;;;22.31;100.00;93008.47;4979780;28;20030;-79
2023/07/11 05:21:11;;;;;;;25.70;14.32;;;;;;;22.34;100.00;93009.69;4962422;28;20417;-80
2023/07/11 05:23:37;;;;;;;20.52;12.77;;;;;;;22.38;100.00;93010.50;4962015;28;20058;-80
2023/07/11 05:26:05;;;;;;;23.88;13.50;;;;;;;22.43;100.00;92999.59;4959813;28;20535;-80
2023/07/11 05:28:30;;;;;;;21.10;12.98;;;;;;;22.48;100.00;92996.66;4978669;28;20500;-80
2023/07/11 05:30:57;;;;;;;21.77;13.52;;;;;;;22.61;100.00;93006.09;4959677;28;20127;-81
2023/07/11 05:33:23;;;;;;;22.08;12.93;;;;;;;22.74;100.00;93009.41;4961361;28;20089;-80
2023/07/11 05:36:05;;;;;;;22.02;13.32;;;;;;;22.88;100.00;93003.59;4957517;28;20033;-80
2023/07/11 05:38:31;;;;;;;;;;;;;;;23.09;100.00;93007.84;4979532;28;20033;-80
2023/07/11 05:40:57;;;;;;;20.00;12.63;;;;;;;23.21;100.00;93005.00;4962099;28;20346;-80
2023/07/11 05:43:22;;;;;;;18.17;12.75;;;;;;;23.35;100.00;93005.31;4961029;28;20077;-79
2023/07/11 05:45:48;;;;;;;20.13;12.05;;;;;;;23.49;100.00;93007.47;4959693;28;20027;-79
2023/07/11 05:48:13;;;;;;;22.50;12.85;;;;;;;23.60;100.00;93007.66;4977399;28;20031;-80
2023/07/11 05:50:39;;;;;;;28.38;14.43;;;;;;;23.69;100.00;93002.84;4978143;28;20518;-80
2023/07/11 05:53:05;;;;;;;19.85;12.68;;;;;;;23.81;100.00;93010.72;4961588;28;20030;-80
2023/07/11 05:55:30;;;;;;;22.80;13.20;;;;;;;23.96;100.00;93001.03;4961263;28;20039;-80
2023/07/11 05:57:56;;;;;;;18.90;12.50;;;;;;;24.04;100.00;93002.69;4929248;28;20094;-80
2023/07/11 06:00:22;;;;;;;17.75;12.45;;;;;;;24.07;100.00;93006.53;4944223;28;20369;-80
2023/07/11 06:02:47;;;;;;;22.17;12.23;;;;;;;24.09;100.00;93009.63;4975970;28;20034;-79
2023/07/11 06:05:13;;;;;;;19.02;12.60;;;;;;;24.07;100.00;93006.53;4960518;28;20042;-79
2023/07/11 06:07:39;;;;;;;16.55;11.98;;;;;;;24.06;100.00;92999.66;4979228;28;20031;-78
2023/07/11 06:10:05;;;;;;;17.63;12.30;;;;;;;24.05;100.00;92987.44;4944154;28;20039;-79
2023/07/11 06:12:33;;;;;;;18.60;12.52;;;;;;;24.15;100.00;93010.13;4978709;28;20042;-78
2023/07/11 06:14:59;;;;;;;14.75;10.45;;;;;;;24.16;100.00;93003.63;4978896;28;20043;-79
2023/07/11 06:17:24;;;;;;;18.63;11.75;;;;;;;24.20;100.00;93007.91;4970103;28;20130;-78
2023/07/11 06:19:50;;;;;;;16.45;11.80;;;;;;;24.41;100.00;93010.16;4960589;28;20035;-78
2023/07/11 06:22:15;;;;;;;15.50;11.25;;;;;;;24.63;100.00;93008.59;4973729;28;20027;-79
2023/07/11 06:24:41;;;;;;;18.63;11.18;;;;;;;24.86;100.00;93013.09;4957557;28;20023;-78
2023/07/11 06:27:07;;;;;;;17.73;10.52;;;;;;;25.32;100.00;93007.53;4977059;28;20066;-79
2023/07/11 06:29:32;;;;;;;13.55;10.43;;;;;;;25.46;100.00;93013.03;4962807;28;20042;-79
2023/07/11 06:31:58;;;;;;;19.00;9.95;;;;;;;25.62;100.00;93014.72;4970220;28;20107;-78
2023/07/11 06:34:23;;;;;;;14.75;9.77;;;;;;;25.51;100.00;93020.78;4979819;28;20153;-78
2023/07/11 06:36:49;;;;;;;17.95;10.23;;;;;;;25.34;100.00;93022.09;4959038;28;20068;-79
2023/07/11 06:39:15;;;;;;;14.98;9.73;;;;;;;25.34;100.00;93018.66;4978411;28;20408;-79
2023/07/11 06:41:40;;;;;;;18.10;10.02;;;;;;;25.16;100.00;93025.69;4960716;28;20081;-78
2023/07/11 06:44:08;;;;;;;15.55;9.40;;;;;;;25.35;100.00;93017.50;4959499;28;20038;-80
2023/07/11 06:46:37;;;;;;;14.57;9.82;;;;;;;25.53;100.00;93015.03;4978493;28;20033;-79
2023/07/11 06:49:03;;;;;;;16.13;9.38;;;;;;;25.83;100.00;93020.31;4962058;28;20050;-79
2023/07/11 06:51:29;;;;;;;14.15;8.85;;;;;;;26.27;100.00;93030.28;4981592;28;20054;-81
2023/07/11 06:53:55;;;;;;;12.18;8.82;;;;;;;26.41;100.00;93020.81;4940880;28;20035;-78
2023/07/11 06:56:22;;;;;;;17.13;8.68;;;;;;;26.57;100.00;93024.03;4944309;28;20038;-80
2023/07/11 06:58:49;;;;;;;15.50;9.20;;;;;;;26.55;100.00;93018.28;4970392;28;20031;-78
2023/07/11 07:01:21;;;;;;;18.38;8.93;;;;;;;26.70;100.00;93022.56;4975035;28;20122;-78
2023/07/11 07:03:47;;;;;;;12.32;9.45;;;;;;;26.65;100.00;93030.22;4975262;28;20062;-79
2023/07/11 07:06:13;;;;;;;14.63;9.00;;;;;;;26.62;100.00;93021.00;4965836;28;20457;-78
2023/07/11 07:08:40;;;;;;;19.85;9.30;;;;;;;26.69;100.00;93021.03;4950373;28;20065;-78
2023/07/11 07:11:06;;;;;;;12.55;9.38;;;;;;;26.91;100.00;93021.16;4957062;28;20041;-78
2023/07/11 07:13:32;;;;;;;17.35;9.82;;;;;;;26.82;100.00;93018.81;4968465;28;20047;-80
2023/07/11 07:16:00;;;;;;;15.80;9.27;;;;;;;26.89;100.00;93015.41;4958367;28;20038;-78
2023/07/11 07:18:29;;;;;;;13.73;9.80;;;;;;;26.76;100.00;93020.31;4954244;28;20038;-78
2023/07/11 07:20:55;;;;;;;14.80;9.68;;;;;;;26.81;100.00;93019.94;4957491;28;20136;-77
2023/07/11 07:23:20;;;;;;;16.80;9.02;;;;;;;27.06;100.00;93017.38;4954437;28;20034;-78
2023/07/11 07:25:52;;;;;;;12.23;9.10;;;;;;;27.08;100.00;93012.41;4956557;28;20058;-77
2023/07/11 07:28:18;;;;;;;15.50;9.00;;;;;;;27.07;99.12;93010.13;4954699;28;20034;-78
2023/07/11 07:30:48;;;;;;;16.48;9.90;;;;;;;27.13;100.00;93012.06;4961068;28;20125;-79
2023/07/11 07:33:15;;;;;;;14.00;8.82;;;;;;;27.26;100.00;93012.50;4961727;28;20035;-80
2023/07/11 07:35:41;;;;;;;20.02;9.82;;;;;;;27.33;100.00;93017.13;4962019;28;20118;-79
2023/07/11 07:38:07;;;;;;;14.15;9.32;;;;;;;27.33;100.00;93017.91;4964147;28;20027;-80
2023/07/11 07:40:33;;;;;;;15.32;10.13;;;;;;;27.37;100.00;93009.88;4962936;28;21361;-79
2023/07/11 07:42:58;;;;;;;14.27;10.02;;;;;;;27.34;100.00;93016.00;4948420;28;20051;-80
2023/07/11 07:45:24;;;;;;;14.85;9.85;;;;;;;27.24;100.00;93011.34;4957277;28;20035;-81
2023/07/11 07:47:50;;;;;;;15.82;9.65;;;;;;;27.00;100.00;93014.31;4972985;28;20480;-79
2023/07/11 07:50:15;;;;;;;20.60;10.82;;;;;;;26.69;100.00;93021.03;4934945;28;20534;-80
2023/07/11 07:52:41;;;;;;;13.85;9.90;;;;;;;26.78;100.00;93020.69;4944613;29;20104;-80
2023/07/11 07:55:07;;;;;;;14.48;10.05;;;;;;;27.05;100.00;93023.91;4955735;28;20092;-79
2023/07/11 07:57:33;;;;;;;15.40;9.75;;;;;;;27.22;100.00;93021.69;4968875;28;20054;-80
2023/07/11 07:59:59;;;;;;;12.00;9.02;;;;;;;27.35;100.00;93018.28;4955938;28;20039;-80
2023/07/11 08:02:25;;;;;;;13.05;9.23;;;;;;;27.57;97.75;93019.13;4971846;28;20437;-79
2023/07/11 08:04:50;;;;;;;17.65;9.50;;;;;;;27.74;99.03;93014.19;4951327;28;20119;-79
2023/07/11 08:07:16;;;;;;;15.65;8.85;;;;;;;28.10;96.25;93022.31;4968330;28;20042;-79
2023/07/11 08:09:43;;;;;;;12.93;8.88;;;;;;;28.00;94.18;93016.56;4948553;28;20058;-78
2023/07/11 08:12:10;;;;;;;18.60;8.82;;;;;;;28.03;89.54;93029.25;4962399;28;20042;-79
2023/07/11 08:14:40;;;;;;;17.35;9.75;;;;;;;27.70;94.65;93021.50;4968277;28;20055;-79
2023/07/11 08:17:07;;;;;;;14.40;8.90;;;;;;;27.82;93.64;93015.75;4945519;28;20118;-79
2023/07/11 08:19:32;;;;;;;21.27;9.27;;;;;;;27.80;94.99;93020.72;4958243;28;20086;-79
2023/07/11 08:21:58;;;;;;;14.65;9.60;;;;;;;27.68;95.38;93013.03;4964447;28;20429;-79
2023/07/11 08:24:24;;;;;;;15.27;9.20;;;;;;;27.70;94.13;93014.19;4943162;28;20039;-79
2023/07/11 08:26:50;;;;;;;11.60;8.98;;;;;;;27.70;92.38;93018.81;4945917;28;20501;-79
2023/07/11 08:29:17;;;;;;;15.23;9.32;;;;;;;27.50;95.16;93021.06;4974832;28;20031;-79
2023/07/11 08:31:42;;;;;;;12.60;8.60;;;;;;;27.66;94.60;93018.78;4963731;28;20448;-79
2023/07/11 08:34:08;;;;;;;14.38;8.93;;;;;;;27.70;90.87;93022.25;4975103;28;20041;-79
2023/07/11 08:36:34;;;;;;;14.93;9.85;;;;;;;27.67;92.47;93025.69;4942780;28;20092;-81
2023/07/11 08:39:02;;;;;;;15.20;8.70;;;;;;;27.63;94.99;93016.88;4979643;28;20042;-78
2023/07/11 08:41:38;;;;;;;16.48;9.15;;;;;;;27.55;95.42;93012.59;4962195;28;20034;-78
2023/07/11 08:44:10;;;;;;;16.20;9.80;;;;;;;27.47;95.18;93003.75;4979251;28;20034;-79
2023/07/11 08:46:41;;;;;;;;;;;;;;;27.47;96.71;93017.19;4979245;28;20034;-78
2023/07/11 08:49:16;;;;;;;21.08;9.93;;;;;;;27.19;98.60;93013.22;4979429;28;19952;-78
2023/07/11 08:51:50;;;;;;;14.48;9.70;;;;;;;27.44;97.81;93014.50;4980100;28;20034;-78
2023/07/11 08:54:51;;;;;;;12.48;8.80;;;;;;;27.65;97.37;93003.00;4963369;28;20047;-78
2023/07/11 08:57:20;;;;;;;15.50;9.50;;;;;;;27.76;97.81;93001.91;4960413;28;20117;-79
2023/07/11 09:00:02;;;;;;;13.23;9.45;;;;;;;27.87;95.63;93004.63;4982288;28;20023;-79
2023/07/11 09:02:34;;;;;;;16.67;9.25;;;;;;;27.74;93.57;93006.09;4981287;28;20039;-79
2023/07/11 09:05:03;;;;;;;17.27;9.40;;;;;;;27.80;93.24;93005.34;4980603;28;20493;-79
2023/07/11 09:07:35;;;;;;;12.43;9.15;;;;;;;27.86;89.48;93010.41;4982176;28;20078;-79
2023/07/11 09:10:01;;;;;;;13.85;9.63;;;;;;;27.79;90.15;93011.13;4964135;28;20046;-79
2023/07/11 09:12:42;;;;;;;16.30;9.50;;;;;;;27.81;90.84;93011.53;4977412;28;20137;-79
2023/07/11 09:15:13;;;;;;;15.55;9.27;;;;;;;27.99;88.19;93009.66;4959995;28;20039;-79
2023/07/11 09:17:58;;;;;;;18.02;9.40;;;;;;;27.90;90.08;93009.25;4979710;28;20109;-78
2023/07/11 09:20:41;;;;;;;17.77;9.85;;;;;;;28.00;91.34;93007.72;4983235;28;20061;-78
2023/07/11 09:23:28;;;;;;;16.33;10.07;;;;;;;28.22;89.18;93013.88;4983213;28;20099;-78
2023/07/11 09:26:00;;;;;;;17.25;10.02;;;;;;;28.33;85.60;93003.88;4975605;28;20042;-78
2023/07/11 09:28:29;;;;;;;13.35;9.45;;;;;;;28.19;89.14;93001.97;4980392;28;20038;-78
2023/07/11 09:31:00;;;;;;;15.65;9.15;;;;;;;28.08;87.84;93001.19;4982766;28;20516;-79
2023/07/11 09:33:28;;;;;;;13.75;9.73;;;;;;;28.02;89.47;93002.72;4985172;28;20049;-81
2023/07/11 09:35:55;;;;;;;16.42;10.00;;;;;;;28.00;89.06;92997.72;4983616;28;20027;-79
2023/07/11 09:38:40;;;;;;;18.25;10.25;;;;;;;28.08;89.00;92984.25;4948674;28;20487;-81
2023/07/11 09:41:16;;;;;;;16.23;9.20;;;;;;;27.78;88.94;92988.81;4976232;28;20031;-80
2023/07/11 09:43:42;;;;;;;14.45;9.95;;;;;;;27.99;89.52;92990.81;4983064;28;20373;-79
2023/07/11 09:46:19;;;;;;;19.77;9.30;;;;;;;28.13;87.60;92986.59;4980952;28;20089;-79
2023/07/11 09:48:47;;;;;;;17.48;9.23;;;;;;;28.14;86.66;92980.03;4958663;28;20566;-79
2023/07/11 09:51:36;;;;;;;11.93;8.90;;;;;;;28.16;87.44;92980.44;4979850;28;20026;-78
2023/07/11 09:54:15;;;;;;;14.10;9.48;;;;;;;28.07;86.75;92986.19;4959341;28;20065;-79
2023/07/11 09:56:46;;;;;;;12.88;8.93;;;;;;;28.07;89.54;92982.75;4981580;28;20185;-80
2023/07/11 09:59:13;;;;;;;18.15;10.68;;;;;;;27.85;89.53;92976.56;4962152;28;20066;-79
2023/07/11 10:01:39;;;;;;;17.25;9.95;;;;;;;28.05;90.21;92985.03;4964252;28;20041;-79
2023/07/11 10:04:08;;;;;;;14.73;10.35;;;;;;;28.02;90.06;92978.50;4980997;28;20038;-81
2023/07/11 10:06:42;;;;;;;16.05;10.05;;;;;;;28.09;92.63;92977.75;4962785;28;20026;-78
2023/07/11 10:09:31;;;;;;;16.63;9.98;;;;;;;28.13;91.39;92970.44;4978404;28;20039;-79
2023/07/11 10:12:01;;;;;;;15.13;9.93;;;;;;;28.10;90.51;92968.50;4975622;28;20039;-81
2023/07/11 10:14:40;;;;;;;18.48;11.27;;;;;;;28.27;88.06;92970.44;4977423;28;20424;-80
2023/07/11 10:17:41;;;;;;;15.45;10.85;;;;;;;28.24;87.73;92976.59;4977700;28;20031;-79
2023/07/11 10:20:16;;;;;;;18.95;11.48;;;;;;;28.32;92.28;92978.09;4978164;28;20312;-80
2023/07/11 10:22:44;;;;;;;17.73;10.25;;;;;;;28.40;91.27;92970.81;4977739;28;20042;-80
2023/07/11 10:25:20;;;;;;;14.70;10.30;;;;;;;28.47;89.15;92976.22;4968879;28;20035;-78
2023/07/11 10:28:13;;;;;;;16.60;11.65;;;;;;;28.67;91.05;92976.56;4969750;28;20042;-81
2023/07/11 10:30:41;;;;;;;17.52;10.30;;;;;;;28.85;89.59;92974.59;4972437;28;20039;-82
2023/07/11 10:33:16;;;;;;;14.65;11.00;;;;;;;28.98;87.53;92976.84;4978800;28;20038;-80
2023/07/11 10:35:43;;;;;;;14.25;9.70;;;;;;;28.97;90.18;92970.69;4965979;28;20042;-80
2023/07/11 10:38:36;;;;;;;14.38;10.80;;;;;;;29.01;89.73;92968.00;4964298;28;20082;-81
2023/07/11 10:41:03;;;;;;;18.27;10.15;;;;;;;28.99;90.07;92967.63;4944911;28;20047;-82
2023/07/11 10:43:35;;;;;;;16.45;10.80;;;;;;;29.05;89.34;92953.34;4962756;28;20031;-81
2023/07/11 10:46:17;;;;;;;15.32;10.55;;;;;;;29.30;95.82;92965.22;4969839;28;20035;-82
2023/07/11 10:48:47;;;;;;;;;;;;;;;29.44;89.37;92959.72;4966428;28;20582;-80
2023/07/11 10:51:35;;;;;;;14.73;9.40;;;;;;;29.53;87.23;92959.31;4958231;28;19983;-81
2023/07/11 10:54:09;;;;;;;15.27;10.25;;;;;;;29.38;86.14;92962.06;4965614;28;20047;-83
2023/07/11 10:56:46;;;;;;;14.70;10.35;;;;;;;29.60;83.56;92961.97;4950019;28;20621;-81
2023/07/11 10:59:15;;;;;;;14.23;9.98;;;;;;;29.86;85.55;92963.38;4958834;28;20058;-82
2023/07/11 11:01:46;;;;;;;16.85;11.07;;;;;;;29.88;79.75;92971.84;4976893;28;20031;-83
2023/07/11 11:04:17;;;;;;;15.00;10.05;;;;;;;29.77;81.62;92966.50;4978593;28;20128;-83
2023/07/11 11:06:43;;;;;;;;;;;;;;;29.66;84.39;92966.53;4946796;28;20038;-85
2023/07/11 11:09:20;;;;;;;14.95;10.15;;;;;;;29.63;85.81;92958.47;4961452;28;19914;-83
2023/07/11 11:12:12;;;;;;;15.55;9.90;;;;;;;29.67;82.57;92959.97;4959633;28;20541;-83
2023/07/11 11:14:52;;;;;;;15.60;10.05;;;;;;;29.68;82.95;92952.69;4971660;28;20042;-82
2023/07/11 11:17:36;;;;;;;16.52;9.52;;;;;;;29.40;85.35;92954.34;4958184;28;20089;-82
2023/07/11 11:20:16;;;;;;;17.83;10.13;;;;;;;29.36;86.17;92952.84;4976327;28;20031;-84
2023/07/11 11:22:56;;;;;;;14.88;9.85;;;;;;;29.39;85.82;92946.69;4965609;28;20034;-80
2023/07/11 11:25:32;;;;;;;14.15;10.05;;;;;;;29.02;86.19;92943.34;4976546;28;20027;-78
2023/07/11 11:27:57;;;;;;;14.65;10.30;;;;;;;28.73;88.37;92942.69;4989287;28;20039;-79
2023/07/11 11:30:29;;;;;;;18.55;11.23;;;;;;;28.48;88.05;92941.97;4987227;28;20044;-81
2023/07/11 11:33:13;;;;;;;14.75;10.40;;;;;;;28.70;88.90;92938.06;4964090;28;20066;-78
2023/07/11 11:35:57;;;;;;;20.40;9.55;;;;;;;28.50;86.81;92931.59;4981322;28;20062;-83
2023/07/11 11:38:39;;;;;;;18.23;9.95;;;;;;;28.20;89.15;92933.53;4974630;28;20037;-81
2023/07/11 11:41:14;;;;;;;15.45;10.02;;;;;;;28.64;88.56;92929.63;4979311;28;20042;-80
2023/07/11 11:43:44;;;;;;;19.60;10.45;;;;;;;28.57;88.97;92931.56;4981131;28;20063;-81
2023/07/11 11:46:11;;;;;;;18.58;10.75;;;;;;;28.29;90.49;92921.59;4986189;28;20027;-79
2023/07/11 11:48:38;;;;;;;20.17;11.10;;;;;;;28.55;87.61;92913.13;4980981;28;20401;-80
2023/07/11 11:51:16;;;;;;;14.50;10.40;;;;;;;28.52;88.14;92924.66;4968797;28;20034;-82
2023/07/11 11:54:00;;;;;;;21.67;12.02;;;;;;;28.79;90.19;92914.19;4973484;28;20038;-80
2023/07/11 11:56:26;;;;;;;14.18;10.82;;;;;;;28.57;88.70;92915.41;4956845;28;20114;-81
2023/07/11 11:58:52;;;;;;;18.48;11.52;;;;;;;28.82;86.98;92915.31;4971190;28;20027;-82
2023/07/11 12:01:36;;;;;;;19.20;11.75;;;;;;;28.75;85.80;92916.09;4973147;28;20035;-81
2023/07/11 12:04:38;;;;;;;14.93;11.80;;;;;;;28.72;86.90;92911.50;4974287;28;20031;-82
2023/07/11 12:07:23;;;;;;;18.40;12.70;;;;;;;28.54;87.02;92910.81;4955806;28;20034;-81
2023/07/11 12:09:52;;;;;;;21.95;11.93;;;;;;;28.38;88.05;92920.03;4971921;28;20516;-80
2023/07/11 12:12:34;;;;;;;15.02;11.45;;;;;;;28.74;87.66;92914.59;4971967;28;20022;-81
2023/07/11 12:15:10;;;;;;;17.95;11.15;;;;;;;28.89;89.78;92917.22;4969064;28;20038;-82
2023/07/11 12:17:36;;;;;;;17.58;11.60;;;;;;;28.88;87.45;92913.75;4972923;28;20437;-80
2023/07/11 12:20:07;;;;;;;17.35;11.45;;;;;;;28.96;86.20;92915.28;4979759;28;20042;-82
2023/07/11 12:22:39;;;;;;;16.40;11.48;;;;;;;29.02;87.64;92919.09;4974516;28;20034;-81
2023/07/11 12:25:14;;;;;;;;;;;;;;;29.24;84.80;92914.38;4940100;28;20066;-81
2023/07/11 12:27:39;;;;;;;15.45;10.10;;;;;;;29.14;86.42;92915.22;4974756;28;19944;-82
2023/07/11 12:30:14;;;;;;;26.55;11.60;;;;;;;29.21;80.84;92922.50;4973214;28;20370;-81
2023/07/11 12:32:41;;;;;;;17.20;11.88;;;;;;;29.31;86.33;92926.28;4972963;28;20023;-81
2023/07/11 12:35:09;;;;;;;21.20;12.90;;;;;;;29.39;84.64;92925.09;4968842;28;20177;-81
2023/07/11 12:37:46;;;;;;;21.10;12.40;;;;;;;29.38;82.95;92923.56;4955473;28;20031;-81
2023/07/11 12:40:27;;;;;;;15.85;11.63;;;;;;;29.42;82.94;92919.69;4937601;29;20043;-81
2023/07/11 12:42:58;;;;;;;16.63;11.52;;;;;;;29.40;81.68;92926.63;4972345;28;20027;-81
2023/07/11 12:45:37;;;;;;;17.58;11.82;;;;;;;29.32;82.83;92928.59;4970743;28;20115;-80
2023/07/11 12:48:13;;;;;;;17.90;11.95;;;;;;;29.40;80.72;92930.09;4972005;28;20035;-80
2023/07/11 12:50:51;;;;;;;19.02;12.23;;;;;;;29.62;84.87;92919.94;4973319;28;20063;-80
2023/07/11 12:53:18;;;;;;;17.45;10.38;;;;;;;29.77;82.35;92917.19;4965329;28;20038;-81
2023/07/11 12:55:46;;;;;;;17.02;11.32;;;;;;;29.79;84.50;92915.63;4975201;28;20038;-81
2023/07/11 12:58:28;;;;;;;22.20;11.80;;;;;;;29.91;81.90;92911.66;4974348;28;20038;-81
2023/07/11 13:00:56;;;;;;;17.80;11.20;;;;;;;29.83;82.44;92900.16;4957109;28;20102;-81
2023/07/11 13:03:26;;;;;;;17.38;12.75;;;;;;;29.56;79.99;92897.25;4961709;28;20106;-81
2023/07/11 13:05:58;;;;;;;23.73;12.32;;;;;;;29.23;84.05;92899.38;4967445;28;20111;-81
2023/07/11 13:08:31;;;;;;;23.85;12.32;;;;;;;29.33;85.98;92891.63;4974433;28;20023;-80
2023/07/11 13:10:59;;;;;;;19.73;12.07;;;;;;;29.22;84.99;92895.13;4974758;28;20442;-80
2023/07/11 13:13:27;;;;;;;19.38;12.07;;;;;;;29.32;82.24;92895.47;4970968;28;20065;-81
2023/07/11 13:15:53;;;;;;;21.70;12.90;;;;;;;29.38;82.17;92896.59;4969574;28;20071;-79
2023/07/11 13:18:34;;;;;;;17.88;12.73;;;;;;;29.63;79.52;92902.59;4973039;28;20035;-81
2023/07/11 13:21:02;;;;;;;21.63;12.38;;;;;;;29.62;81.78;92892.97;4970471;28;20034;-80